createdAt,value
2024-02-21T00:00:42.830Z,5.13
2024-02-21T00:03:09.726Z,5.15
2024-02-21T00:05:36.643Z,5.15
2024-02-21T00:08:04.490Z,5.30
2024-02-21T00:10:33.445Z,4.60
2024-02-21T00:13:03.123Z,4.85
2024-02-21T00:15:30.272Z,5.15
2024-02-21T00:17:57.210Z,5.50
2024-02-21T00:20:24.247Z,5.60
2024-02-21T00:22:51.137Z,5.43
2024-02-21T00:25:18.636Z,5.32
2024-02-21T00:27:45.603Z,4.80
2024-02-21T00:30:12.917Z,5.93
2024-02-21T00:32:39.982Z,4.90
2024-02-21T00:35:07.096Z,4.75
2024-02-21T00:37:34.035Z,4.65
2024-02-21T00:40:00.941Z,5.40
2024-02-21T00:42:27.848Z,5.28
2024-02-21T00:44:54.718Z,4.95
2024-02-21T00:47:22.298Z,5.03
2024-02-21T00:49:49.471Z,4.97
2024-02-21T00:52:16.448Z,5.95
2024-02-21T00:54:50.354Z,6.53
2024-02-21T00:57:20.554Z,5.45
2024-02-21T00:59:47.599Z,6.10
2024-02-21T01:02:14.759Z,6.22
2024-02-21T01:04:42.023Z,6.25
2024-02-21T01:07:09.030Z,5.40
2024-02-21T01:09:35.917Z,5.97
2024-02-21T01:12:02.903Z,6.78
2024-02-21T01:14:30.098Z,5.38
2024-02-21T01:16:57.073Z,5.88
2024-02-21T01:19:24.400Z,5.70
2024-02-21T01:21:51.509Z,5.88
2024-02-21T01:24:18.492Z,5.20
2024-02-21T01:26:45.300Z,5.10
2024-02-21T01:29:12.205Z,6.35
2024-02-21T01:31:39.281Z,5.63
2024-02-21T01:34:06.275Z,5.07
2024-02-21T01:36:33.309Z,5.40
2024-02-21T01:39:00.224Z,5.40
2024-02-21T01:41:27.152Z,5.95
2024-02-21T01:43:54.190Z,5.97
2024-02-21T01:46:21.225Z,5.28
2024-02-21T01:48:48.310Z,5.50
2024-02-21T01:51:15.412Z,4.88
2024-02-21T01:53:45.545Z,6.30
2024-02-21T01:56:13.350Z,5.60
2024-02-21T01:58:41.473Z,4.65
2024-02-21T02:01:08.544Z,5.82
2024-02-21T02:03:35.560Z,6.57
2024-02-21T02:06:02.755Z,5.97
2024-02-21T02:08:29.804Z,5.88
2024-02-21T02:10:57.257Z,5.88
2024-02-21T02:13:24.273Z,5.18
2024-02-21T02:15:51.213Z,6.20
2024-02-21T02:18:21.392Z,6.43
2024-02-21T02:20:48.621Z,5.00
2024-02-21T02:23:30.242Z,5.82
2024-02-21T02:25:57.519Z,6.13
2024-02-21T02:28:24.637Z,6.32
2024-02-21T02:30:51.787Z,5.50
2024-02-21T02:33:19.249Z,5.45
2024-02-21T02:35:46.646Z,5.55
2024-02-21T02:38:14.589Z,6.55
2024-02-21T02:40:42.025Z,6.00
2024-02-21T02:43:09.565Z,5.68
2024-02-21T02:45:36.614Z,6.68
2024-02-21T02:48:05.560Z,6.72
2024-02-21T02:50:32.672Z,6.18
2024-02-21T02:52:59.708Z,6.28
2024-02-21T02:55:27.758Z,6.60
2024-02-21T02:57:55.612Z,6.80
2024-02-21T03:00:22.604Z,6.72
2024-02-21T03:02:49.980Z,6.05
2024-02-21T03:05:18.398Z,7.25
2024-02-21T03:07:45.669Z,6.50
2024-02-21T03:10:12.959Z,7.28
2024-02-21T03:12:40.224Z,5.82
2024-02-21T03:15:07.496Z,9.52
2024-02-21T03:17:37.474Z,6.40
2024-02-21T03:20:12.521Z,7.30
2024-02-21T03:22:41.117Z,7.22
2024-02-21T03:25:09.415Z,6.22
2024-02-21T03:27:36.437Z,5.68
2024-02-21T03:30:03.667Z,6.28
2024-02-21T03:32:31.051Z,6.88
2024-02-21T03:34:58.272Z,5.90
2024-02-21T03:37:25.401Z,12.40
2024-02-21T03:39:52.541Z,9.05
2024-02-21T03:42:19.405Z,7.10
2024-02-21T03:44:46.233Z,5.47
2024-02-21T03:47:13.362Z,8.07
2024-02-21T03:49:40.778Z,5.53
2024-02-21T03:52:07.868Z,6.93
2024-02-21T03:54:34.894Z,5.63
2024-02-21T03:57:01.774Z,5.22
2024-02-21T03:59:28.746Z,7.15
2024-02-21T04:01:55.833Z,9.05
2024-02-21T04:04:23.013Z,6.70
2024-02-21T04:06:50.624Z,12.43
2024-02-21T04:09:17.796Z,25.40
2024-02-21T04:11:44.813Z,16.45
2024-02-21T04:14:12.914Z,15.57
2024-02-21T04:16:40.798Z,9.77
2024-02-21T04:19:08.663Z,15.15
2024-02-21T04:21:35.904Z,11.57
2024-02-21T04:24:04.689Z,13.88
2024-02-21T04:26:31.842Z,9.05
2024-02-21T04:28:59.006Z,5.10
2024-02-21T04:31:26.271Z,7.68
2024-02-21T04:33:53.334Z,11.68
2024-02-21T04:36:20.391Z,21.83
2024-02-21T04:38:47.433Z,14.90
2024-02-21T04:41:14.476Z,12.65
2024-02-21T04:43:42.106Z,7.68
2024-02-21T04:46:09.277Z,11.88
2024-02-21T04:48:36.295Z,18.30
2024-02-21T04:51:03.255Z,7.10
2024-02-21T04:53:30.449Z,9.73
2024-02-21T04:55:57.465Z,10.18
2024-02-21T04:58:24.458Z,8.35
2024-02-21T05:00:52.096Z,14.75
2024-02-21T05:03:19.083Z,12.38
2024-02-21T05:05:45.999Z,11.45
2024-02-21T05:08:13.194Z,19.52
2024-02-21T05:10:40.549Z,16.63
2024-02-21T05:13:07.515Z,18.98
2024-02-21T05:15:34.436Z,14.95
2024-02-21T05:18:01.477Z,18.40
2024-02-21T05:20:28.550Z,15.40
2024-02-21T05:22:55.457Z,7.32
2024-02-21T05:25:22.424Z,9.32
2024-02-21T05:27:49.995Z,8.68
2024-02-21T05:30:17.008Z,19.65
2024-02-21T05:32:44.000Z,19.75
2024-02-21T05:35:10.995Z,22.30
2024-02-21T05:37:37.897Z,21.38
2024-02-21T05:40:05.030Z,12.18
2024-02-21T05:42:32.274Z,21.83
2024-02-21T05:44:59.207Z,27.85
2024-02-21T05:47:26.299Z,25.48
2024-02-21T05:49:55.532Z,19.40
2024-02-21T05:52:22.614Z,13.52
2024-02-21T05:54:51.371Z,25.23
2024-02-21T05:57:19.277Z,18.05
2024-02-21T05:59:46.166Z,20.17
2024-02-21T06:02:13.104Z,19.83
2024-02-21T06:04:40.996Z,13.57
2024-02-21T06:07:08.054Z,17.00
2024-02-21T06:09:35.302Z,21.60
2024-02-21T06:12:02.404Z,24.75
2024-02-21T06:14:29.372Z,17.92
2024-02-21T06:16:56.711Z,9.73
2024-02-21T06:19:24.121Z,26.45
2024-02-21T06:21:51.072Z,18.73
2024-02-21T06:24:18.092Z,15.48
2024-02-21T06:26:45.822Z,20.65
2024-02-21T06:29:14.567Z,9.48
2024-02-21T06:31:41.756Z,22.20
2024-02-21T06:34:08.955Z,26.63
2024-02-21T06:36:36.105Z,16.10
2024-02-21T06:39:05.817Z,11.10
2024-02-21T06:41:34.049Z,14.50
2024-02-21T06:44:01.273Z,25.08
2024-02-21T06:46:30.352Z,27.58
2024-02-21T06:48:58.215Z,26.25
2024-02-21T06:51:26.347Z,9.73
2024-02-21T06:53:54.044Z,24.05
2024-02-21T06:56:21.041Z,19.38
2024-02-21T06:58:48.057Z,18.38
2024-02-21T07:01:15.539Z,14.05
2024-02-21T07:03:42.500Z,16.73
2024-02-21T07:06:09.614Z,21.92
2024-02-21T07:08:36.745Z,25.38
2024-02-21T07:11:03.802Z,23.30
2024-02-21T07:13:30.910Z,25.52
2024-02-21T07:15:58.166Z,12.73
2024-02-21T07:18:26.599Z,15.30
2024-02-21T07:20:53.973Z,16.40
2024-02-21T07:23:21.125Z,17.23
2024-02-21T07:25:47.993Z,14.75
2024-02-21T07:28:15.620Z,13.60
2024-02-21T07:30:42.932Z,15.48
2024-02-21T07:33:10.043Z,24.52
2024-02-21T07:35:41.904Z,18.02
2024-02-21T07:38:13.854Z,17.05
2024-02-21T07:40:41.451Z,15.23
2024-02-21T07:43:08.773Z,15.55
2024-02-21T07:45:36.107Z,9.25
2024-02-21T07:48:03.696Z,18.77
2024-02-21T07:50:30.894Z,16.70
2024-02-21T07:52:58.592Z,18.15
2024-02-21T07:55:25.657Z,14.90
2024-02-21T07:57:52.591Z,7.85
2024-02-21T08:00:23.163Z,6.40
2024-02-21T08:02:50.417Z,9.05
2024-02-21T08:05:17.473Z,21.50
2024-02-21T08:07:44.560Z,16.90
2024-02-21T08:10:11.562Z,13.75
2024-02-21T08:12:38.859Z,19.20
2024-02-21T08:15:05.965Z,10.93
2024-02-21T08:17:33.581Z,9.05
2024-02-21T08:20:00.844Z,7.50
2024-02-21T08:22:28.065Z,14.43
2024-02-21T08:24:55.511Z,7.10
2024-02-21T08:27:22.718Z,6.60
2024-02-21T08:29:49.662Z,6.13
2024-02-21T08:32:16.612Z,9.73
2024-02-21T08:34:43.503Z,15.02
2024-02-21T08:37:12.074Z,13.63
2024-02-21T08:39:39.773Z,6.53
2024-02-21T08:42:06.768Z,25.92
2024-02-21T08:44:33.783Z,22.63
2024-02-21T08:47:01.472Z,18.92
2024-02-21T08:49:33.798Z,21.10
2024-02-21T08:52:05.317Z,17.85
2024-02-21T08:54:34.042Z,14.73
2024-02-21T08:57:00.996Z,6.65
2024-02-21T08:59:28.024Z,13.25
2024-02-21T09:01:55.110Z,11.77
2024-02-21T09:04:22.257Z,7.53
2024-02-21T09:06:49.352Z,7.13
2024-02-21T09:09:16.245Z,31.42
2024-02-21T09:11:43.348Z,16.60
2024-02-21T09:14:10.378Z,22.83
2024-02-21T09:16:37.932Z,17.38
2024-02-21T09:19:05.244Z,13.73
2024-02-21T09:21:32.257Z,9.60
2024-02-21T09:24:00.393Z,12.15
2024-02-21T09:26:28.046Z,10.48
2024-02-21T09:28:55.443Z,14.07
2024-02-21T09:31:22.604Z,11.88
2024-02-21T09:33:49.747Z,6.75
2024-02-21T09:36:16.842Z,13.18
2024-02-21T09:38:43.809Z,8.90
2024-02-21T09:41:27.086Z,17.48
2024-02-21T09:43:57.194Z,9.52
2024-02-21T09:46:51.840Z,8.13
2024-02-21T09:49:24.630Z,10.30
2024-02-21T09:51:51.552Z,12.20
2024-02-21T09:54:19.698Z,12.40
2024-02-21T09:56:48.246Z,15.57
2024-02-21T09:59:16.726Z,15.23
2024-02-21T10:01:45.396Z,10.55
2024-02-21T10:04:12.636Z,9.70
2024-02-21T10:06:40.501Z,7.57
2024-02-21T10:09:07.913Z,18.38
2024-02-21T10:11:38.285Z,15.80
2024-02-21T10:14:09.518Z,14.15
2024-02-21T10:16:38.665Z,9.55
2024-02-21T10:19:06.026Z,11.30
2024-02-21T10:21:33.118Z,5.95
2024-02-21T10:24:00.011Z,11.63
2024-02-21T10:26:27.026Z,11.88
2024-02-21T10:28:55.781Z,15.30
2024-02-21T10:31:29.783Z,27.77
2024-02-21T10:34:00.558Z,18.20
2024-02-21T10:36:27.772Z,18.00
2024-02-21T10:38:57.827Z,11.13
2024-02-21T10:41:24.988Z,17.67
2024-02-21T10:43:56.415Z,25.10
2024-02-21T10:46:25.583Z,24.30
2024-02-21T10:49:15.002Z,14.80
2024-02-21T10:51:44.662Z,7.35
2024-02-21T10:54:23.852Z,15.10
2024-02-21T10:56:51.630Z,17.70
2024-02-21T10:59:18.591Z,10.75
2024-02-21T11:01:45.682Z,17.50
2024-02-21T11:04:15.438Z,12.32
2024-02-21T11:06:42.687Z,23.75
2024-02-21T11:09:11.177Z,15.65
2024-02-21T11:11:42.822Z,9.93
2024-02-21T11:14:10.995Z,14.30
2024-02-21T11:16:42.277Z,14.57
2024-02-21T11:19:26.676Z,10.85
2024-02-21T11:21:54.921Z,14.77
2024-02-21T11:24:32.342Z,11.07
2024-02-21T11:27:30.050Z,22.63
2024-02-21T11:29:57.808Z,10.02
2024-02-21T11:32:25.101Z,9.35
2024-02-21T11:34:56.250Z,11.90
2024-02-21T11:39:54.169Z,8.93
2024-02-21T11:42:21.285Z,16.13
2024-02-21T11:44:48.288Z,19.83
2024-02-21T11:47:15.739Z,20.27
2024-02-21T11:49:55.159Z,11.20
2024-02-21T11:52:26.941Z,12.10
2024-02-21T11:54:55.864Z,14.13
2024-02-21T11:57:23.154Z,13.07
2024-02-21T11:59:54.737Z,18.15
2024-02-21T12:02:23.440Z,16.60
2024-02-21T12:04:50.544Z,26.92
2024-02-21T12:07:19.100Z,18.58
2024-02-21T12:09:46.116Z,8.38
2024-02-21T12:12:13.313Z,12.52
2024-02-21T12:14:40.232Z,22.23
2024-02-21T12:17:07.892Z,12.10
2024-02-21T12:19:35.493Z,14.07
2024-02-21T12:22:03.089Z,15.60
2024-02-21T12:24:30.589Z,21.63
2024-02-21T12:27:01.538Z,8.90
2024-02-21T12:29:29.983Z,8.43
2024-02-21T12:31:57.199Z,10.25
2024-02-21T12:34:35.464Z,7.18
2024-02-21T12:37:14.245Z,6.38
2024-02-21T12:39:41.457Z,16.70
2024-02-21T12:42:08.421Z,11.45
2024-02-21T12:44:35.461Z,15.40
2024-02-21T12:47:02.607Z,8.65
2024-02-21T12:49:31.129Z,8.93
2024-02-21T12:51:58.314Z,10.00
2024-02-21T12:54:25.267Z,13.32
2024-02-21T12:56:52.217Z,10.02
2024-02-21T12:59:19.188Z,13.70
2024-02-21T13:01:46.295Z,6.85
2024-02-21T13:04:13.395Z,16.92
2024-02-21T13:06:40.490Z,11.27
2024-02-21T13:09:09.425Z,9.77
2024-02-21T13:11:36.652Z,16.27
2024-02-21T13:14:03.794Z,16.52
2024-02-21T13:16:30.982Z,17.25
2024-02-21T13:18:58.275Z,13.02
2024-02-21T13:21:25.346Z,13.52
2024-02-21T13:23:52.331Z,11.00
2024-02-21T13:26:19.897Z,12.15
2024-02-21T13:28:46.934Z,14.07
2024-02-21T13:31:13.995Z,18.10
2024-02-21T13:33:41.386Z,9.95
2024-02-21T13:36:08.344Z,16.85
2024-02-21T13:38:35.407Z,17.67
2024-02-21T13:41:02.590Z,23.48
2024-02-21T13:43:29.752Z,24.50
2024-02-21T13:46:00.942Z,14.93
2024-02-21T13:48:28.702Z,19.02
2024-02-21T13:50:55.801Z,20.90
2024-02-21T13:53:23.946Z,18.52
2024-02-21T13:55:51.215Z,22.48
2024-02-21T13:58:18.718Z,16.67
2024-02-21T14:00:45.921Z,15.77
2024-02-21T14:03:13.041Z,8.85
2024-02-21T14:05:43.579Z,5.85
2024-02-21T14:08:10.905Z,8.52
2024-02-21T14:10:38.849Z,15.60
2024-02-21T14:13:06.307Z,12.00
2024-02-21T14:15:33.551Z,11.73
2024-02-21T14:18:00.684Z,12.93
2024-02-21T14:20:28.102Z,14.90
2024-02-21T14:22:55.114Z,9.88
2024-02-21T14:25:22.191Z,18.92
2024-02-21T14:27:49.244Z,17.65
2024-02-21T14:30:16.213Z,11.48
2024-02-21T14:32:44.980Z,13.30
2024-02-21T14:35:12.097Z,10.02
2024-02-21T14:37:39.115Z,15.25
2024-02-21T14:40:07.087Z,21.65
2024-02-21T14:42:35.495Z,16.85
2024-02-21T14:45:05.731Z,11.45
2024-02-21T14:47:35.498Z,18.08
2024-02-21T14:50:04.089Z,13.23
2024-02-21T14:52:32.520Z,10.88
2024-02-21T14:54:59.681Z,11.63
2024-02-21T14:57:26.639Z,10.93
2024-02-21T14:59:57.551Z,7.45
2024-02-21T15:02:24.750Z,8.90
2024-02-21T15:04:54.667Z,17.52
2024-02-21T15:07:25.576Z,12.35
2024-02-21T15:09:52.549Z,8.23
2024-02-21T15:12:19.436Z,12.82
2024-02-21T15:14:46.441Z,16.33
2024-02-21T15:17:14.128Z,15.93
2024-02-21T15:19:45.086Z,16.05
2024-02-21T15:22:12.840Z,12.10
2024-02-21T15:24:40.570Z,16.75
2024-02-21T15:27:07.985Z,11.52
2024-02-21T15:29:35.737Z,9.35
2024-02-21T15:32:03.597Z,7.80
2024-02-21T15:34:30.862Z,10.05
2024-02-21T15:36:57.992Z,8.07
2024-02-21T15:39:28.013Z,8.13
2024-02-21T15:41:56.170Z,8.07
2024-02-21T15:44:23.478Z,16.73
2024-02-21T15:46:50.497Z,7.05
2024-02-21T15:49:17.578Z,8.98
2024-02-21T15:51:44.638Z,10.68
2024-02-21T15:54:11.620Z,17.48
2024-02-21T15:56:38.626Z,20.50
2024-02-21T15:59:06.232Z,22.25
2024-02-21T16:01:36.269Z,15.77
2024-02-21T16:04:03.723Z,20.98
2024-02-21T16:06:30.882Z,22.95
2024-02-21T16:08:57.800Z,13.55
2024-02-21T16:11:24.876Z,24.05
2024-02-21T16:13:52.966Z,28.55
2024-02-21T16:16:20.106Z,11.85
2024-02-21T16:18:47.901Z,18.80
2024-02-21T16:21:17.683Z,17.02
2024-02-21T16:23:44.685Z,8.30
2024-02-21T16:26:12.931Z,10.70
2024-02-21T16:28:40.123Z,8.90
2024-02-21T16:31:07.459Z,12.45
2024-02-21T16:33:34.772Z,6.97
2024-02-21T16:36:03.536Z,9.60
2024-02-21T16:38:30.665Z,9.73
2024-02-21T16:40:57.625Z,18.92
2024-02-21T16:43:24.558Z,19.75
2024-02-21T16:45:52.087Z,18.83
2024-02-21T16:48:19.925Z,25.55
2024-02-21T16:50:53.561Z,9.43
2024-02-21T16:53:27.089Z,20.70
2024-02-21T16:55:54.130Z,14.23
2024-02-21T16:58:21.118Z,15.50
2024-02-21T17:00:49.196Z,10.65
2024-02-21T17:03:21.493Z,7.13
2024-02-21T17:05:54.878Z,7.13
2024-02-21T17:08:25.159Z,15.15
2024-02-21T17:10:52.750Z,15.20
2024-02-21T17:13:19.943Z,6.80
2024-02-21T17:15:47.315Z,10.68
2024-02-21T17:18:14.379Z,13.85
2024-02-21T17:20:41.389Z,11.00
2024-02-21T17:23:08.423Z,19.17
2024-02-21T17:25:36.110Z,8.77
2024-02-21T17:28:03.105Z,19.23
2024-02-21T17:30:30.253Z,12.93
2024-02-21T17:32:57.262Z,13.13
2024-02-21T17:35:25.753Z,8.00
2024-02-21T17:37:52.996Z,15.05
2024-02-21T17:40:19.943Z,13.35
2024-02-21T17:42:46.880Z,8.95
2024-02-21T17:45:13.895Z,11.48
2024-02-21T17:47:40.877Z,23.10
2024-02-21T17:50:08.428Z,14.52
2024-02-21T17:52:35.449Z,17.92
2024-02-21T17:55:05.626Z,22.88
2024-02-21T17:57:32.801Z,14.53
2024-02-21T18:00:00.533Z,18.95
2024-02-21T18:02:28.193Z,16.80
2024-02-21T18:04:55.447Z,20.67
2024-02-21T18:07:22.630Z,11.82
2024-02-21T18:09:51.752Z,8.32
2024-02-21T18:12:18.923Z,18.42
2024-02-21T18:14:46.169Z,9.98
2024-02-21T18:17:15.743Z,21.60
2024-02-21T18:19:43.141Z,22.20
2024-02-21T18:22:10.508Z,16.27
2024-02-21T18:24:37.479Z,15.48
2024-02-21T18:27:04.976Z,10.90
2024-02-21T18:29:38.744Z,16.48
2024-02-21T18:32:10.787Z,10.43
2024-02-21T18:34:38.494Z,17.20
2024-02-21T18:37:05.676Z,11.50
2024-02-21T18:39:33.085Z,20.55
2024-02-21T18:42:00.333Z,12.57
2024-02-21T18:44:27.335Z,15.25
2024-02-21T18:46:54.393Z,15.55
2024-02-21T18:49:21.787Z,11.63
2024-02-21T18:51:48.837Z,18.27
2024-02-21T18:54:15.863Z,16.02
2024-02-21T18:56:46.778Z,12.13
2024-02-21T18:59:13.841Z,16.25
2024-02-21T19:01:40.915Z,10.38
2024-02-21T19:04:08.031Z,6.78
2024-02-21T19:06:35.264Z,8.60
2024-02-21T19:09:05.626Z,8.63
2024-02-21T19:11:33.374Z,11.15
2024-02-21T19:14:00.859Z,9.45
2024-02-21T19:16:29.929Z,7.80
2024-02-21T19:18:57.273Z,8.80
2024-02-21T19:21:24.347Z,7.30
2024-02-21T19:23:51.334Z,6.30
2024-02-21T19:26:18.322Z,7.40
2024-02-21T19:28:46.519Z,7.60
2024-02-21T19:31:13.897Z,7.30
2024-02-21T19:33:41.697Z,7.72
2024-02-21T19:36:10.518Z,8.65
2024-02-21T19:38:37.788Z,7.43
2024-02-21T19:41:08.265Z,6.95
2024-02-21T19:43:35.530Z,6.93
2024-02-21T19:46:03.114Z,7.25
2024-02-21T19:48:30.640Z,7.40
2024-02-21T19:50:58.303Z,6.53
2024-02-21T19:53:25.509Z,5.38
2024-02-21T19:55:52.864Z,6.28
2024-02-21T19:58:19.964Z,6.45
2024-02-21T20:00:47.034Z,5.82
2024-02-21T20:03:14.234Z,6.78
2024-02-21T20:05:44.106Z,6.22
2024-02-21T20:08:13.050Z,8.00
2024-02-21T20:10:41.249Z,5.85
2024-02-21T20:13:08.320Z,5.78
2024-02-21T20:15:35.233Z,5.93
2024-02-21T20:18:02.431Z,6.18
2024-02-21T20:20:30.187Z,7.97
2024-02-21T20:22:57.187Z,5.97
2024-02-21T20:25:24.159Z,7.10
2024-02-21T20:27:51.127Z,6.45
2024-02-21T20:30:18.616Z,6.75
2024-02-21T20:32:45.754Z,6.38
2024-02-21T20:35:12.901Z,6.18
2024-02-21T20:37:40.051Z,6.22
2024-02-21T20:40:10.032Z,7.18
2024-02-21T20:42:37.121Z,5.50
2024-02-21T20:45:04.477Z,5.88
2024-02-21T20:47:31.924Z,5.35
2024-02-21T20:50:00.004Z,6.47
2024-02-21T20:52:27.333Z,6.50
2024-02-21T20:54:54.295Z,6.25
2024-02-21T20:57:22.279Z,6.35
2024-02-21T20:59:50.135Z,6.43
2024-02-21T21:02:17.310Z,6.40
2024-02-21T21:04:44.451Z,6.72
2024-02-21T21:07:12.144Z,8.75
2024-02-21T21:09:40.634Z,7.15
2024-02-21T21:12:08.075Z,6.78
2024-02-21T21:14:35.517Z,6.15
2024-02-21T21:17:05.670Z,5.70
2024-02-21T21:19:33.385Z,7.77
2024-02-21T21:22:01.880Z,7.55
2024-02-21T21:24:30.399Z,6.05
2024-02-21T21:26:57.518Z,5.95
2024-02-21T21:29:24.523Z,6.25
2024-02-21T21:31:51.771Z,6.90
2024-02-21T21:34:19.099Z,7.13
2024-02-21T21:36:46.718Z,5.85
2024-02-21T21:39:17.538Z,6.88
2024-02-21T21:41:44.510Z,6.93
2024-02-21T21:44:11.772Z,7.43
2024-02-21T21:46:44.215Z,6.30
2024-02-21T21:49:11.423Z,7.07
2024-02-21T21:51:38.680Z,6.00
2024-02-21T21:54:05.727Z,5.65
2024-02-21T21:56:32.749Z,6.55
2024-02-21T21:58:59.841Z,8.27
2024-02-21T22:01:29.992Z,6.15
2024-02-21T22:03:57.009Z,7.70
2024-02-21T22:06:23.976Z,7.95
2024-02-21T22:08:52.893Z,7.13
2024-02-21T22:11:20.308Z,6.72
2024-02-21T22:13:48.100Z,6.68
2024-02-21T22:16:15.164Z,5.18
2024-02-21T22:18:42.851Z,6.20
2024-02-21T22:21:09.963Z,6.05
2024-02-21T22:23:40.196Z,6.68
2024-02-21T22:26:08.111Z,6.82
2024-02-21T22:28:35.220Z,6.55
2024-02-21T22:31:02.462Z,7.75
2024-02-21T22:33:29.817Z,6.93
2024-02-21T22:35:56.880Z,6.57
2024-02-21T22:38:24.224Z,6.93
2024-02-21T22:40:51.099Z,7.55
2024-02-21T22:43:18.401Z,5.47
2024-02-21T22:45:48.442Z,7.57
2024-02-21T22:48:15.356Z,6.05
2024-02-21T22:50:42.814Z,5.43
2024-02-21T22:53:09.912Z,6.03
2024-02-21T22:55:37.278Z,6.70
2024-02-21T22:58:04.261Z,5.53
2024-02-21T23:00:32.110Z,5.93
2024-02-21T23:02:59.514Z,6.03
2024-02-21T23:05:26.684Z,6.80
2024-02-21T23:07:54.104Z,6.15
2024-02-21T23:10:24.950Z,6.05
2024-02-21T23:12:52.640Z,6.15
2024-02-21T23:15:19.707Z,5.57
2024-02-21T23:17:46.735Z,6.43
2024-02-21T23:20:13.831Z,5.90
2024-02-21T23:22:42.003Z,5.10
2024-02-21T23:25:11.860Z,6.18
2024-02-21T23:27:38.764Z,6.63
2024-02-21T23:30:12.661Z,5.75
2024-02-21T23:32:39.900Z,5.55
2024-02-21T23:35:07.692Z,5.75
2024-02-21T23:37:35.149Z,5.63
2024-02-21T23:40:02.065Z,5.57
2024-02-21T23:42:29.213Z,4.78
2024-02-21T23:44:56.627Z,6.28
2024-02-21T23:47:23.567Z,5.93
2024-02-21T23:49:50.828Z,5.53
2024-02-21T23:52:18.089Z,4.97
2024-02-21T23:54:44.991Z,6.35
2024-02-21T23:57:11.974Z,5.45
2024-02-21T23:59:39.531Z,5.82
